Time;durP1;ratioP1;P1;durP2;ratioP2;P2;SDS_P1;SDS_P2;PMS_P1;PMS_P2;Temp;Humidity;BMP_temperature;BMP_pressure;BME280_temperature;BME280_humidity;BME280_pressure;Samples;Min_cycle;Max_cycle;Signal;HPM_P1;HPM_P2
2022/04/29 00:01:56;;;;;;;9.15;5.82;;;9.40;98.20;;;;;;4971575;28;20034;-69
2022/04/29 00:04:23;;;;;;;8.45;5.53;;;9.30;98.50;;;;;;4989903;28;20135;-69
2022/04/29 00:06:49;;;;;;;9.98;4.97;;;9.30;98.90;;;;;;4987825;28;20464;-69
2022/04/29 00:09:14;;;;;;;8.32;5.47;;;9.20;99.10;;;;;;4989045;28;20026;-69
2022/04/29 00:11:40;;;;;;;9.23;5.22;;;9.20;99.30;;;;;;4976529;28;20066;-69
2022/04/29 00:14:06;;;;;;;8.02;4.93;;;9.20;99.70;;;;;;4987965;28;20053;-69
2022/04/29 00:16:32;;;;;;;6.50;5.18;;;9.10;99.70;;;;;;4987043;28;20030;-69
2022/04/29 00:18:57;;;;;;;10.07;5.68;;;9.00;99.90;;;;;;4994710;28;20038;-69
2022/04/29 00:21:23;;;;;;;10.80;5.45;;;9.00;99.90;;;;;;4995580;28;20038;-67
2022/04/29 00:23:49;;;;;;;9.00;5.47;;;8.90;99.90;;;;;;4997199;28;20025;-67
2022/04/29 00:26:15;;;;;;;7.38;4.93;;;8.90;99.90;;;;;;4991267;28;20045;-67
2022/04/29 00:28:40;;;;;;;11.68;5.65;;;8.90;99.90;;;;;;4995278;28;20427;-66
2022/04/29 00:31:06;;;;;;;6.95;5.20;;;8.80;99.90;;;;;;4982554;28;20045;-66
2022/04/29 00:33:32;;;;;;;7.25;5.43;;;8.80;99.90;;;;;;5008348;28;20037;-67
2022/04/29 00:35:57;;;;;;;9.93;5.68;;;8.80;99.90;;;;;;5009168;28;20030;-68
2022/04/29 00:38:23;;;;;;;8.07;5.47;;;8.70;99.90;;;;;;5005564;28;20023;-67
2022/04/29 00:40:49;;;;;;;8.65;6.05;;;8.70;99.90;;;;;;5013415;28;20057;-68
2022/04/29 00:43:15;;;;;;;9.80;6.18;;;8.60;99.90;;;;;;5016082;28;20037;-68
2022/04/29 00:45:40;;;;;;;11.18;6.28;;;8.60;99.90;;;;;;5005654;28;20076;-68
2022/04/29 00:48:08;;;;;;;8.95;5.70;;;8.60;99.90;;;;;;5007041;28;20022;-68
2022/04/29 00:50:35;;;;;;;9.30;5.95;;;8.50;99.90;;;;;;4995335;28;20080;-67
2022/04/29 00:53:02;;;;;;;6.70;4.93;;;8.50;99.90;;;;;;4995965;28;20022;-68
2022/04/29 00:55:29;;;;;;;8.93;5.47;;;8.50;99.90;;;;;;5006409;28;20030;-68
2022/04/29 00:58:07;;;;;;;8.75;5.63;;;8.50;99.90;;;;;;5011835;28;20498;-68
2022/04/29 01:00:34;;;;;;;8.52;6.05;;;8.40;99.90;;;;;;4990968;28;20041;-68
2022/04/29 01:03:01;;;;;;;10.95;6.25;;;8.40;99.90;;;;;;5004951;28;20022;-68
2022/04/29 01:05:26;;;;;;;9.85;6.72;;;8.40;99.90;;;;;;5009927;28;20463;-67
2022/04/29 01:07:53;;;;;;;10.40;6.20;;;8.30;99.90;;;;;;5012410;28;20080;-67
2022/04/29 01:10:22;;;;;;;9.25;5.45;;;8.30;99.90;;;;;;4992366;28;20030;-67
2022/04/29 01:13:00;;;;;;;10.05;5.55;;;8.30;99.90;;;;;;4993975;28;20056;-67
2022/04/29 01:15:26;;;;;;;10.73;6.50;;;8.20;99.90;;;;;;5013317;28;20038;-67
2022/04/29 01:17:54;;;;;;;9.43;5.70;;;8.20;99.90;;;;;;5012908;28;21394;-67
2022/04/29 01:20:24;;;;;;;9.50;5.93;;;8.20;99.90;;;;;;4989084;28;20128;-67
2022/04/29 01:22:50;;;;;;;9.98;6.07;;;8.20;99.90;;;;;;5007199;28;20109;-67
2022/04/29 01:25:16;;;;;;;9.80;6.10;;;8.20;99.90;;;;;;4994166;28;20117;-67
2022/04/29 01:27:41;;;;;;;8.07;6.07;;;8.20;99.90;;;;;;5008683;28;20428;-67
2022/04/29 01:30:10;;;;;;;9.15;6.15;;;8.10;99.90;;;;;;5010657;28;20030;-68
2022/04/29 01:32:37;;;;;;;9.05;5.45;;;8.10;99.90;;;;;;5012686;28;20052;-67
2022/04/29 01:35:04;;;;;;;10.20;6.57;;;8.10;99.90;;;;;;5008501;28;20088;-67
2022/04/29 01:37:30;;;;;;;8.98;6.22;;;8.10;99.90;;;;;;5013484;28;20467;-67
2022/04/29 01:39:56;;;;;;;10.15;6.38;;;8.00;99.90;;;;;;4995383;28;20033;-67
2022/04/29 01:42:22;;;;;;;7.90;5.28;;;8.00;99.90;;;;;;5005589;28;20025;-67
2022/04/29 01:44:48;;;;;;;8.57;6.10;;;8.00;99.90;;;;;;4988336;28;20471;-67
2022/04/29 01:47:14;;;;;;;8.05;5.95;;;7.90;99.90;;;;;;5007270;28;20506;-67
2022/04/29 01:49:41;;;;;;;8.57;5.97;;;7.90;99.90;;;;;;5007130;28;20053;-67
2022/04/29 01:52:08;;;;;;;11.60;6.35;;;7.90;99.90;;;;;;5008414;28;20083;-67
2022/04/29 01:54:34;;;;;;;10.57;5.95;;;7.80;99.90;;;;;;4992114;28;20034;-67
2022/04/29 01:57:00;;;;;;;9.82;5.97;;;7.90;99.90;;;;;;5009726;28;20018;-67
2022/04/29 01:59:28;;;;;;;10.23;6.95;;;7.80;99.90;;;;;;4993234;28;20030;-67
2022/04/29 02:01:53;;;;;;;8.95;6.10;;;7.70;99.90;;;;;;5009746;28;20026;-67
2022/04/29 02:04:19;;;;;;;9.05;5.68;;;7.70;99.90;;;;;;5007289;28;20026;-67
2022/04/29 02:06:45;;;;;;;8.82;6.07;;;7.70;99.90;;;;;;4993563;28;20141;-67
2022/04/29 02:09:10;;;;;;;9.60;6.18;;;7.60;99.90;;;;;;5006264;28;20022;-67
2022/04/29 02:11:36;;;;;;;12.40;6.30;;;7.60;99.90;;;;;;5010213;28;20030;-67
2022/04/29 02:14:02;;;;;;;9.00;5.57;;;7.60;99.90;;;;;;5011207;28;20029;-67
2022/04/29 02:16:28;;;;;;;12.95;6.18;;;7.60;99.90;;;;;;5009657;28;20022;-67
2022/04/29 02:18:54;;;;;;;10.32;6.43;;;7.50;99.90;;;;;;5006160;28;20395;-67
2022/04/29 02:21:20;;;;;;;10.48;7.07;;;7.50;99.90;;;;;;5005817;28;20022;-67
2022/04/29 02:23:46;;;;;;;11.82;6.68;;;7.40;99.90;;;;;;5010125;28;20117;-67
2022/04/29 02:26:12;;;;;;;14.68;6.85;;;7.40;99.90;;;;;;5012605;28;20054;-68
2022/04/29 02:28:38;;;;;;;16.90;8.15;;;7.40;99.90;;;;;;5014292;28;20026;-67
2022/04/29 02:31:04;;;;;;;16.27;8.43;;;7.30;99.90;;;;;;5010327;28;20040;-68
2022/04/29 02:33:30;;;;;;;11.18;7.88;;;7.30;99.90;;;;;;4989935;28;20058;-67
2022/04/29 02:35:56;;;;;;;14.25;8.70;;;7.30;99.90;;;;;;5009868;28;20030;-67
2022/04/29 02:38:22;;;;;;;10.15;7.80;;;7.30;99.90;;;;;;5009699;28;20524;-67
2022/04/29 02:40:50;;;;;;;11.93;7.97;;;7.30;99.90;;;;;;5010229;28;20061;-67
2022/04/29 02:43:17;;;;;;;12.13;8.30;;;7.30;99.90;;;;;;5010647;28;20678;-67
2022/04/29 02:45:43;;;;;;;12.52;8.25;;;7.20;99.90;;;;;;5008861;28;20022;-67
2022/04/29 02:48:09;;;;;;;15.40;8.70;;;7.20;99.90;;;;;;5008698;28;20105;-67
2022/04/29 02:50:35;;;;;;;11.68;8.05;;;7.10;99.90;;;;;;5006797;28;20117;-68
2022/04/29 02:53:01;;;;;;;11.20;7.68;;;7.10;99.90;;;;;;5007514;28;20034;-68
2022/04/29 02:55:27;;;;;;;12.00;7.93;;;7.00;99.90;;;;;;5007600;28;20435;-68
2022/04/29 02:57:52;;;;;;;12.07;8.13;;;6.90;99.90;;;;;;5002605;28;20125;-68
2022/04/29 03:00:19;;;;;;;14.75;7.90;;;6.80;99.90;;;;;;5006970;28;20049;-68
2022/04/29 03:02:44;;;;;;;13.02;8.00;;;6.80;99.90;;;;;;5006025;28;20054;-68
2022/04/29 03:05:10;;;;;;;12.82;8.82;;;6.70;99.90;;;;;;5006726;28;20061;-68
2022/04/29 03:07:35;;;;;;;12.68;8.25;;;6.70;99.90;;;;;;4994403;28;20531;-67
2022/04/29 03:10:01;;;;;;;11.27;7.68;;;6.70;99.90;;;;;;5020431;28;20101;-67
2022/04/29 03:12:27;;;;;;;10.55;6.28;;;6.70;99.90;;;;;;5012101;28;20025;-67
2022/04/29 03:14:53;;;;;;;10.82;7.10;;;6.70;99.90;;;;;;4994283;28;20080;-67
2022/04/29 03:20:04;;;;;;;12.15;6.75;;;6.70;99.90;;;;;;5011033;28;20037;-67
2022/04/29 03:22:30;;;;;;;10.57;6.88;;;6.70;99.90;;;;;;5009454;28;20061;-68
2022/04/29 03:24:55;;;;;;;11.20;7.20;;;6.60;99.90;;;;;;4994087;28;20486;-67
2022/04/29 03:27:21;;;;;;;11.20;6.65;;;6.60;99.90;;;;;;5011647;28;20669;-67
2022/04/29 03:29:47;;;;;;;11.07;6.95;;;6.70;99.90;;;;;;5004673;28;20030;-67
2022/04/29 03:32:13;;;;;;;12.40;6.68;;;6.70;99.90;;;;;;5010947;28;20054;-67
2022/04/29 03:34:39;;;;;;;10.35;7.15;;;6.70;99.90;;;;;;5007401;28;20030;-67
2022/04/29 03:37:05;;;;;;;13.73;7.57;;;6.60;99.90;;;;;;5010762;28;20375;-67
2022/04/29 03:39:30;;;;;;;10.57;7.50;;;6.60;99.90;;;;;;5007929;28;20026;-67
2022/04/29 03:41:56;;;;;;;12.20;7.95;;;6.50;99.90;;;;;;5008999;28;20037;-67
2022/04/29 03:44:22;;;;;;;13.38;7.50;;;6.50;99.90;;;;;;5008711;28;20022;-67
2022/04/29 03:46:48;;;;;;;11.52;7.53;;;6.50;99.90;;;;;;5008193;28;20116;-67
2022/04/29 03:51:58;;;;;;;13.25;8.18;;;6.40;99.90;;;;;;5008486;28;20072;-67
2022/04/29 03:54:24;;;;;;;15.73;7.93;;;6.40;99.90;;;;;;4996439;28;20038;-67
2022/04/29 03:56:51;;;;;;;15.10;9.00;;;6.30;99.90;;;;;;5014360;28;20029;-67
2022/04/29 03:59:16;;;;;;;10.25;7.32;;;6.30;99.90;;;;;;5014008;28;20034;-67
2022/04/29 04:01:42;;;;;;;13.15;7.63;;;6.30;99.90;;;;;;5011050;28;20060;-68
2022/04/29 04:04:08;;;;;;;12.05;6.90;;;6.20;99.90;;;;;;5013540;28;20029;-68
2022/04/29 04:06:52;;;;;;;12.95;7.55;;;6.30;99.90;;;;;;5010776;28;20026;-68
2022/04/29 04:09:22;;;;;;;12.95;6.75;;;6.30;99.90;;;;;;4996203;28;20487;-68
2022/04/29 04:11:51;;;;;;;11.90;7.25;;;6.20;99.90;;;;;;4994063;28;20085;-68
2022/04/29 04:14:18;;;;;;;14.00;8.20;;;6.20;99.90;;;;;;5011209;28;20060;-68
2022/04/29 04:16:47;;;;;;;15.32;8.10;;;6.20;99.90;;;;;;5011019;28;20033;-68
2022/04/29 04:19:12;;;;;;;11.40;7.63;;;6.20;99.90;;;;;;5011132;28;20594;-68
2022/04/29 04:21:39;;;;;;;12.95;7.68;;;6.20;99.90;;;;;;5005689;28;20033;-68
2022/04/29 04:24:06;;;;;;;14.35;8.25;;;6.20;99.90;;;;;;5003931;28;20030;-68
2022/04/29 04:26:32;;;;;;;12.13;8.00;;;6.20;99.90;;;;;;5006638;28;20033;-67
2022/04/29 04:28:58;;;;;;;18.25;9.10;;;6.20;99.90;;;;;;5005118;28;20030;-67
2022/04/29 04:31:24;;;;;;;14.57;8.95;;;6.20;99.90;;;;;;5009655;28;20022;-68
2022/04/29 04:33:50;;;;;;;16.52;9.43;;;6.30;99.90;;;;;;4994377;28;20030;-67
2022/04/29 04:36:16;;;;;;;15.90;9.20;;;6.30;99.90;;;;;;5011252;28;20048;-67
2022/04/29 04:38:45;;;;;;;12.63;8.57;;;6.40;99.90;;;;;;5010020;28;20021;-68
2022/04/29 04:41:13;;;;;;;17.48;9.32;;;6.40;99.90;;;;;;5011415;28;20176;-67
2022/04/29 04:43:39;;;;;;;13.65;9.18;;;6.40;99.90;;;;;;5007233;28;20041;-68
2022/04/29 04:46:06;;;;;;;13.43;8.55;;;6.50;99.90;;;;;;5010205;28;20467;-68
2022/04/29 04:48:32;;;;;;;16.40;9.73;;;6.50;99.90;;;;;;5006018;28;20528;-68
2022/04/29 04:51:01;;;;;;;13.73;9.00;;;6.60;99.90;;;;;;5010641;28;20433;-68
2022/04/29 04:53:27;;;;;;;11.82;9.15;;;6.60;99.90;;;;;;4990519;28;20026;-68
2022/04/29 04:55:53;;;;;;;16.10;9.38;;;6.70;99.90;;;;;;5006624;28;20404;-67
2022/04/29 04:58:19;;;;;;;13.25;8.63;;;6.80;99.90;;;;;;4984506;28;20034;-67
2022/04/29 05:00:44;;;;;;;14.23;9.10;;;6.90;99.90;;;;;;5008911;28;20030;-68
2022/04/29 05:03:10;;;;;;;13.07;9.00;;;6.90;99.90;;;;;;5005832;28;20061;-67
2022/04/29 05:05:36;;;;;;;14.48;8.75;;;7.00;99.90;;;;;;5000040;28;20035;-68
2022/04/29 05:08:02;;;;;;;15.13;8.57;;;7.20;99.90;;;;;;4996302;28;20022;-68
2022/04/29 05:10:27;;;;;;;18.17;10.23;;;7.30;99.90;;;;;;4976621;28;20092;-67
2022/04/29 05:12:53;;;;;;;24.70;13.70;;;7.50;99.90;;;;;;5000714;28;20064;-67
2022/04/29 05:15:18;;;;;;;16.90;11.18;;;7.70;99.90;;;;;;4999867;28;20402;-66
2022/04/29 05:17:44;;;;;;;18.25;10.07;;;7.90;99.90;;;;;;4997115;28;20037;-67
2022/04/29 05:20:11;;;;;;;16.08;10.25;;;8.00;99.90;;;;;;4995657;28;20100;-68
2022/04/29 05:22:38;;;;;;;14.48;10.82;;;8.20;99.90;;;;;;4989637;28;20037;-67
2022/04/29 05:25:07;;;;;;;16.08;11.10;;;8.40;99.90;;;;;;4995573;28;20032;-67
2022/04/29 05:27:33;;;;;;;16.85;10.15;;;8.40;99.90;;;;;;4982892;28;20069;-67
2022/04/29 05:29:59;;;;;;;11.45;8.95;;;8.70;99.90;;;;;;4996942;28;20066;-67
2022/04/29 05:32:25;;;;;;;13.70;8.45;;;8.80;99.90;;;;;;4982849;28;20498;-68
2022/04/29 05:34:52;;;;;;;14.48;8.30;;;8.90;99.90;;;;;;4995988;28;20164;-67
2022/04/29 05:37:18;;;;;;;14.70;9.07;;;9.10;99.90;;;;;;4993804;28;20033;-68
2022/04/29 05:42:28;;;;;;;13.40;8.82;;;9.20;99.90;;;;;;5013440;28;20090;-67
2022/04/29 05:44:54;;;;;;;13.27;8.68;;;9.30;99.90;;;;;;5020443;28;20030;-67
2022/04/29 05:47:20;;;;;;;11.60;8.00;;;9.50;99.90;;;;;;5008921;28;20101;-68
2022/04/29 05:49:46;;;;;;;12.93;8.65;;;9.50;99.90;;;;;;5007799;28;20827;-66
2022/04/29 05:52:12;;;;;;;16.05;8.55;;;9.50;99.90;;;;;;5005044;28;20034;-68
2022/04/29 05:54:38;;;;;;;13.80;8.13;;;9.60;99.90;;;;;;4994601;28;20536;-67
2022/04/29 05:57:04;;;;;;;13.90;8.43;;;9.60;99.90;;;;;;5011361;28;20104;-68
2022/04/29 05:59:50;;;;;;;16.65;8.00;;;9.60;99.90;;;;;;5011603;28;20034;-68
2022/04/29 06:02:16;;;;;;;13.82;8.25;;;9.50;99.90;;;;;;5011208;28;20026;-68
2022/04/29 06:04:42;;;;;;;14.75;8.75;;;9.60;99.90;;;;;;5008726;28;20018;-67
2022/04/29 06:07:07;;;;;;;13.32;9.07;;;9.70;99.90;;;;;;5010352;28;20032;-67
2022/04/29 06:09:33;;;;;;;14.23;8.65;;;9.70;99.90;;;;;;5012704;28;20060;-67
2022/04/29 06:11:59;;;;;;;15.02;9.13;;;9.80;99.90;;;;;;5012912;28;20164;-67
2022/04/29 06:14:24;;;;;;;19.10;9.23;;;9.90;99.90;;;;;;5012595;28;20030;-67
2022/04/29 06:16:50;;;;;;;14.85;9.07;;;10.00;99.90;;;;;;5013424;28;20590;-67
2022/04/29 06:19:15;;;;;;;13.90;9.38;;;10.10;99.90;;;;;;5001575;28;20439;-67
2022/04/29 06:21:41;;;;;;;13.82;8.73;;;10.20;99.90;;;;;;5005616;28;20033;-67
2022/04/29 06:24:08;;;;;;;16.33;9.93;;;10.30;99.90;;;;;;4990557;28;20029;-67
2022/04/29 06:26:34;;;;;;;14.23;8.95;;;10.40;99.90;;;;;;5011886;28;20482;-67
2022/04/29 06:29:00;;;;;;;10.68;8.27;;;10.60;99.90;;;;;;5012697;28;20034;-67
2022/04/29 06:31:25;;;;;;;17.77;9.35;;;10.60;99.90;;;;;;5012577;28;20049;-67
2022/04/29 06:33:51;;;;;;;13.00;9.05;;;10.70;99.90;;;;;;5012845;28;20022;-67
2022/04/29 06:36:17;;;;;;;14.00;9.25;;;10.80;99.90;;;;;;4995137;28;20017;-67
2022/04/29 06:38:42;;;;;;;13.60;8.77;;;10.90;99.90;;;;;;5012449;28;20018;-67
2022/04/29 06:41:08;;;;;;;13.18;7.50;;;11.10;99.90;;;;;;5012600;28;20430;-67
2022/04/29 06:43:34;;;;;;;12.10;8.05;;;11.10;99.90;;;;;;5011303;28;20022;-68
2022/04/29 06:46:00;;;;;;;15.45;8.13;;;11.20;99.90;;;;;;4995401;28;20029;-68
2022/04/29 06:48:25;;;;;;;13.43;8.05;;;11.30;99.90;;;;;;5012484;28;20026;-67
2022/04/29 06:50:51;;;;;;;11.90;7.55;;;11.30;99.90;;;;;;5012486;28;20141;-67
2022/04/29 06:53:16;;;;;;;12.18;8.68;;;11.40;99.90;;;;;;4994918;28;20050;-67
2022/04/29 06:55:42;;;;;;;14.18;9.30;;;11.30;99.90;;;;;;5011109;28;20026;-68
2022/04/29 06:58:08;;;;;;;11.88;7.97;;;11.40;99.90;;;;;;4991721;28;20034;-68
2022/04/29 07:00:34;;;;;;;12.30;8.15;;;11.40;99.90;;;;;;5006333;28;20030;-68
2022/04/29 07:03:03;;;;;;;13.30;8.25;;;11.40;99.90;;;;;;4983369;28;20041;-67
2022/04/29 07:05:31;;;;;;;13.25;8.82;;;11.50;99.90;;;;;;5001559;28;20467;-68
2022/04/29 07:07:57;;;;;;;13.80;8.40;;;11.60;99.90;;;;;;4994547;28;20033;-68
2022/04/29 07:10:23;;;;;;;15.88;8.85;;;11.60;99.90;;;;;;5009876;28;20044;-67
2022/04/29 07:12:49;;;;;;;11.05;8.25;;;11.70;99.90;;;;;;5012379;28;20034;-68
2022/04/29 07:15:15;;;;;;;13.73;7.65;;;11.70;99.90;;;;;;5000583;28;20027;-68
2022/04/29 07:17:43;;;;;;;11.05;7.82;;;11.80;99.90;;;;;;5008715;28;20030;-68
2022/04/29 07:20:11;;;;;;;11.48;8.05;;;11.90;99.90;;;;;;5005558;28;20383;-68
2022/04/29 07:22:38;;;;;;;13.63;7.72;;;12.00;99.90;;;;;;5002495;28;20573;-68
2022/04/29 07:25:07;;;;;;;11.20;7.78;;;12.00;99.90;;;;;;5009409;28;20021;-68
2022/04/29 07:27:33;;;;;;;12.07;7.63;;;12.10;99.90;;;;;;5011372;28;20513;-69
2022/04/29 07:30:00;;;;;;;12.10;8.90;;;12.20;99.90;;;;;;5008343;28;20034;-68
2022/04/29 07:32:27;;;;;;;13.55;8.00;;;12.20;99.90;;;;;;5005341;28;20026;-68
2022/04/29 07:43:06;;;;;;;;;;;12.50;99.90;;;;;;5012244;28;20121;-67
2022/04/29 07:45:31;;;;;;;15.93;8.18;;;12.60;99.90;;;;;;5008555;28;20418;-67
2022/04/29 07:48:00;;;;;;;12.48;8.75;;;12.80;99.90;;;;;;5008733;28;20502;-68
2022/04/29 07:50:29;;;;;;;13.82;8.82;;;12.90;99.90;;;;;;5005033;28;20057;-67
2022/04/29 07:52:56;;;;;;;12.15;8.10;;;13.00;99.90;;;;;;5012925;28;20022;-68
2022/04/29 07:55:22;;;;;;;13.20;7.72;;;13.20;99.60;;;;;;5008024;28;20048;-68
2022/04/29 07:57:47;;;;;;;15.27;8.02;;;13.20;99.20;;;;;;5008158;28;20037;-68
2022/04/29 08:00:13;;;;;;;15.23;8.02;;;13.30;99.20;;;;;;5009217;28;20041;-68
2022/04/29 08:02:39;;;;;;;13.70;7.82;;;13.30;99.10;;;;;;5004448;28;20030;-68
2022/04/29 08:05:05;;;;;;;15.48;7.28;;;13.30;99.10;;;;;;5007389;28;20048;-68
2022/04/29 08:07:32;;;;;;;13.98;7.68;;;13.40;99.00;;;;;;5005859;28;20038;-68
2022/04/29 08:09:58;;;;;;;12.45;7.55;;;13.60;98.70;;;;;;5008897;28;20030;-68
2022/04/29 08:12:26;;;;;;;16.85;6.95;;;13.80;98.40;;;;;;5012345;28;20356;-69
2022/04/29 08:14:52;;;;;;;10.70;6.97;;;14.00;97.90;;;;;;5011114;28;20022;-68
2022/04/29 08:17:19;;;;;;;10.15;6.57;;;14.10;96.70;;;;;;5006923;28;20026;-68
2022/04/29 08:19:45;;;;;;;10.13;7.05;;;14.30;95.80;;;;;;5011992;28;20406;-68
2022/04/29 08:22:11;;;;;;;12.73;6.32;;;14.40;96.70;;;;;;5005771;28;20426;-68
2022/04/29 08:24:37;;;;;;;7.20;4.28;;;14.50;93.30;;;;;;5011350;28;20088;-68
2022/04/29 08:27:03;;;;;;;9.73;3.67;;;14.70;91.40;;;;;;5005898;28;20030;-68
2022/04/29 08:29:29;;;;;;;7.20;3.55;;;15.10;79.90;;;;;;5009084;28;20995;-68
2022/04/29 08:31:54;;;;;;;5.57;3.28;;;15.30;74.20;;;;;;5011518;28;20035;-68
2022/04/29 08:34:20;;;;;;;5.13;3.05;;;15.50;70.80;;;;;;5007257;28;20069;-68
2022/04/29 08:36:46;;;;;;;7.72;3.20;;;15.70;67.90;;;;;;5004440;28;20084;-68
2022/04/29 08:39:11;;;;;;;6.05;3.08;;;15.80;68.10;;;;;;5001777;28;20511;-68
2022/04/29 08:41:39;;;;;;;5.65;2.80;;;16.00;67.00;;;;;;5007120;28;20630;-68
2022/04/29 08:44:08;;;;;;;5.82;2.80;;;16.10;64.60;;;;;;5001119;28;20034;-68
2022/04/29 08:46:34;;;;;;;4.85;3.03;;;16.20;63.00;;;;;;5009048;28;20034;-68
2022/04/29 08:49:02;;;;;;;4.95;3.53;;;16.20;62.00;;;;;;5009756;28;20032;-68
2022/04/29 08:51:29;;;;;;;5.05;2.92;;;16.20;61.10;;;;;;5010652;28;20451;-68
2022/04/29 08:53:57;;;;;;;5.30;3.70;;;16.20;61.50;;;;;;5006804;28;20028;-68
2022/04/29 08:59:08;;;;;;;6.85;3.28;;;16.20;60.40;;;;;;5004271;28;20029;-68
2022/04/29 09:01:34;;;;;;;4.18;3.10;;;16.10;59.90;;;;;;5013475;28;20464;-68
2022/04/29 09:04:00;;;;;;;5.30;3.00;;;16.00;60.10;;;;;;5012708;28;20045;-69
2022/04/29 09:06:26;;;;;;;4.47;3.22;;;16.00;60.10;;;;;;5009236;28;20472;-69
2022/04/29 09:08:52;;;;;;;6.18;2.97;;;16.00;59.60;;;;;;5007648;28;20044;-69
2022/04/29 09:11:26;;;;;;;7.50;3.10;;;15.90;58.80;;;;;;5004738;28;20121;-68
2022/04/29 09:13:51;;;;;;;;;;;15.80;58.80;;;;;;5005376;28;20065;-69
2022/04/29 09:16:17;;;;;;;5.90;2.88;;;15.80;59.20;;;;;;5008311;28;19941;-69
2022/04/29 09:18:44;;;;;;;4.68;3.13;;;15.80;60.10;;;;;;5008914;28;20041;-68
2022/04/29 09:21:30;;;;;;;5.00;3.00;;;15.90;60.00;;;;;;4995815;28;20591;-68
2022/04/29 09:23:56;;;;;;;4.20;2.97;;;16.00;59.30;;;;;;5002491;28;20030;-68
2022/04/29 09:26:32;;;;;;;4.45;2.95;;;16.20;59.10;;;;;;5007713;28;20030;-68
2022/04/29 09:29:19;;;;;;;5.88;2.90;;;16.20;59.40;;;;;;5008657;28;20102;-68
2022/04/29 09:31:57;;;;;;;3.83;2.60;;;16.40;58.60;;;;;;5007561;28;20045;-68
2022/04/29 09:34:23;;;;;;;5.47;2.70;;;16.60;58.00;;;;;;5008944;28;20033;-68
2022/04/29 09:36:50;;;;;;;3.97;2.70;;;16.70;57.20;;;;;;5007938;28;20096;-68
2022/04/29 09:39:30;;;;;;;4.72;2.70;;;16.80;57.00;;;;;;5009880;28;20034;-68
2022/04/29 09:42:04;;;;;;;5.97;2.92;;;16.90;55.60;;;;;;5006448;28;23278;-68
2022/04/29 09:44:35;;;;;;;6.72;3.20;;;17.00;55.50;;;;;;5002817;28;20034;-68
2022/04/29 09:47:21;;;;;;;3.58;2.60;;;17.10;55.40;;;;;;5004550;28;20022;-68
2022/04/29 09:49:54;;;;;;;4.18;2.80;;;17.20;55.30;;;;;;5006005;28;20025;-68
2022/04/29 09:52:21;;;;;;;5.65;2.63;;;17.40;54.90;;;;;;5004571;28;20045;-69
2022/04/29 09:54:47;;;;;;;5.97;3.08;;;17.60;53.70;;;;;;5006441;28;20096;-69
2022/04/29 09:57:15;;;;;;;4.30;2.53;;;17.70;53.10;;;;;;4999405;28;20026;-68
2022/04/29 09:59:49;;;;;;;4.18;2.58;;;17.90;52.40;;;;;;4998375;28;20056;-68
2022/04/29 10:02:23;;;;;;;5.10;2.30;;;18.10;52.20;;;;;;5000599;28;20030;-68
2022/04/29 10:04:50;;;;;;;3.05;2.40;;;18.20;51.90;;;;;;5005719;28;20738;-67
2022/04/29 10:07:21;;;;;;;4.63;2.53;;;18.40;51.80;;;;;;5007404;28;20054;-68
2022/04/29 10:09:55;;;;;;;3.95;3.13;;;18.50;51.50;;;;;;5006699;28;20026;-68
2022/04/29 10:12:23;;;;;;;5.45;2.90;;;18.70;51.50;;;;;;5005741;28;20025;-68
2022/04/29 10:14:52;;;;;;;5.47;3.22;;;18.80;50.60;;;;;;5009882;28;20495;-68
2022/04/29 10:23:01;;;;;;;3.17;2.40;;;19.10;50.20;;;;;;5001844;28;20482;-68
2022/04/29 10:25:28;;;;;;;7.75;3.28;;;19.20;49.70;;;;;;5003164;28;20026;-68
2022/04/29 10:27:54;;;;;;;5.90;2.80;;;19.20;49.80;;;;;;5000552;28;20026;-68
2022/04/29 10:30:30;;;;;;;2.63;2.20;;;19.30;49.60;;;;;;5003623;28;20022;-68
2022/04/29 10:33:22;;;;;;;7.70;3.10;;;19.30;49.60;;;;;;5002877;28;20053;-68
2022/04/29 10:35:49;;;;;;;8.32;3.58;;;19.00;48.20;;;;;;5007427;28;20022;-68
2022/04/29 10:38:31;;;;;;;2.65;2.40;;;18.90;48.40;;;;;;5016148;28;20033;-69
2022/04/29 10:41:15;;;;;;;3.53;2.88;;;18.90;47.70;;;;;;5008811;28;20476;-69
2022/04/29 10:43:46;;;;;;;3.38;2.22;;;18.60;48.50;;;;;;4996808;28;20041;-69
2022/04/29 10:46:13;;;;;;;3.28;2.63;;;18.60;49.40;;;;;;4997305;28;20025;-69
2022/04/29 10:48:40;;;;;;;6.38;3.20;;;18.60;49.40;;;;;;5002060;28;20018;-69
2022/04/29 10:51:16;;;;;;;8.18;3.08;;;18.60;49.60;;;;;;4995941;28;20038;-69
2022/04/29 10:53:44;;;;;;;5.43;3.10;;;18.60;49.40;;;;;;4993043;28;20030;-69
2022/04/29 10:56:28;;;;;;;5.68;3.50;;;18.60;49.70;;;;;;4991027;28;20030;-69
2022/04/29 10:59:15;;;;;;;4.32;3.30;;;18.70;50.90;;;;;;5000022;28;20400;-67
2022/04/29 11:01:49;;;;;;;3.78;3.30;;;18.70;51.10;;;;;;4996824;28;20363;-68
2022/04/29 11:04:15;;;;;;;5.78;3.05;;;18.70;51.90;;;;;;4997387;28;20014;-68
2022/04/29 11:06:42;;;;;;;5.90;3.35;;;18.70;50.90;;;;;;4997955;28;20068;-68
2022/04/29 11:09:27;;;;;;;4.32;3.55;;;18.70;50.10;;;;;;5000446;28;20018;-68
2022/04/29 11:11:54;;;;;;;6.38;4.05;;;18.60;50.80;;;;;;4998589;28;20680;-68
2022/04/29 11:14:20;;;;;;;6.25;3.75;;;18.60;52.10;;;;;;4996230;28;20080;-68
2022/04/29 11:16:55;;;;;;;7.38;4.05;;;18.60;52.70;;;;;;4997298;28;20026;-68
2022/04/29 11:19:34;;;;;;;5.97;4.40;;;18.70;52.60;;;;;;4997117;28;20065;-68
2022/04/29 11:24:47;;;;;;;6.07;4.53;;;18.80;52.90;;;;;;4994549;28;20037;-67
2022/04/29 11:27:13;;;;;;;5.45;4.45;;;18.80;52.40;;;;;;4994299;28;20026;-67
2022/04/29 11:29:46;;;;;;;8.48;4.20;;;18.90;52.00;;;;;;4989528;28;20505;-67
2022/04/29 11:32:12;;;;;;;5.33;4.03;;;19.00;52.00;;;;;;4992706;28;20072;-68
2022/04/29 11:34:55;;;;;;;6.20;4.10;;;19.00;51.30;;;;;;4997073;28;20446;-67
2022/04/29 11:37:35;;;;;;;4.60;3.80;;;19.10;51.80;;;;;;5014362;28;20032;-67
2022/04/29 11:40:06;;;;;;;5.75;4.10;;;19.10;50.30;;;;;;4995188;28;20070;-67
2022/04/29 11:42:31;;;;;;;4.70;3.58;;;19.00;51.00;;;;;;4996985;28;20030;-67
2022/04/29 11:45:08;;;;;;;5.22;4.20;;;19.00;51.40;;;;;;4997792;28;20038;-67
2022/04/29 11:47:34;;;;;;;4.18;3.72;;;19.00;51.50;;;;;;5000531;28;20034;-67
2022/04/29 11:50:04;;;;;;;6.20;4.15;;;19.00;50.90;;;;;;5000520;28;20026;-67
2022/04/29 11:52:36;;;;;;;6.45;4.20;;;19.10;50.80;;;;;;4997823;28;20033;-67
2022/04/29 11:55:04;;;;;;;5.30;3.72;;;19.00;51.50;;;;;;4998067;28;20095;-68
2022/04/29 11:57:33;;;;;;;5.93;2.95;;;19.30;51.20;;;;;;5000297;28;20029;-67
2022/04/29 12:00:00;;;;;;;4.80;2.90;;;19.40;49.70;;;;;;4998686;28;20387;-67
2022/04/29 12:02:27;;;;;;;4.75;3.15;;;19.60;49.90;;;;;;4996282;28;20067;-67
2022/04/29 12:04:57;;;;;;;8.25;3.72;;;19.70;49.60;;;;;;4999059;28;20120;-67
2022/04/29 12:07:24;;;;;;;6.03;3.00;;;19.90;49.20;;;;;;5001654;28;20040;-67
2022/04/29 12:09:50;;;;;;;5.93;3.42;;;20.00;47.50;;;;;;4995615;28;20045;-67
2022/04/29 12:12:22;;;;;;;4.90;3.10;;;19.90;47.20;;;;;;4999512;28;20271;-67
2022/04/29 12:14:48;;;;;;;4.82;4.00;;;19.80;47.80;;;;;;5003232;28;20116;-67
2022/04/29 12:17:16;;;;;;;7.03;4.50;;;19.90;47.70;;;;;;5001729;28;20446;-68
2022/04/29 12:19:41;;;;;;;6.13;3.78;;;19.90;48.20;;;;;;5000999;28;20561;-68
2022/04/29 12:22:09;;;;;;;4.50;3.38;;;19.80;47.80;;;;;;5000938;23;20042;-69
2022/04/29 12:24:45;;;;;;;5.57;3.20;;;19.90;48.00;;;;;;4973292;28;20429;-69
2022/04/29 12:27:12;;;;;;;5.47;4.03;;;20.00;47.70;;;;;;4971646;28;20023;-70
2022/04/29 12:29:39;;;;;;;4.90;3.50;;;20.10;47.80;;;;;;4975808;28;20061;-69
2022/04/29 12:35:11;;;;;;;5.38;3.70;;;20.10;47.10;;;;;;4959958;28;20591;-70
2022/04/29 12:37:37;;;;;;;4.63;3.50;;;20.20;48.00;;;;;;4956007;28;20526;-69
2022/04/29 12:40:04;;;;;;;6.22;3.45;;;20.20;46.50;;;;;;4959711;28;20057;-69
2022/04/29 12:42:30;;;;;;;3.78;3.28;;;20.30;46.70;;;;;;4959210;28;20039;-69
2022/04/29 12:45:10;;;;;;;4.13;3.20;;;20.30;46.90;;;;;;4958127;28;20086;-69
2022/04/29 12:47:50;;;;;;;4.82;3.63;;;20.40;46.60;;;;;;4958275;28;20487;-69
2022/04/29 12:50:31;;;;;;;6.80;5.07;;;20.30;47.70;;;;;;4956224;28;20050;-70
2022/04/29 12:53:03;;;;;;;7.07;5.25;;;20.20;49.90;;;;;;4957290;28;20054;-70
2022/04/29 12:55:31;;;;;;;6.28;4.93;;;19.90;50.70;;;;;;4957846;28;20623;-70
2022/04/29 12:58:03;;;;;;;8.57;4.93;;;19.80;50.90;;;;;;4957102;28;20027;-70
2022/04/29 13:00:29;;;;;;;6.20;4.35;;;19.80;51.10;;;;;;4956124;28;20027;-70
2022/04/29 13:03:03;;;;;;;5.68;4.70;;;19.80;51.20;;;;;;4956111;28;20042;-70
2022/04/29 13:05:29;;;;;;;9.07;4.53;;;19.80;50.60;;;;;;4955971;28;20188;-70
2022/04/29 13:07:55;;;;;;;8.23;4.75;;;19.70;50.70;;;;;;4972898;28;20069;-70
2022/04/29 13:10:22;;;;;;;8.60;4.93;;;19.70;51.40;;;;;;4957104;28;20513;-70
2022/04/29 13:12:47;;;;;;;5.90;5.00;;;19.50;50.70;;;;;;4959663;28;20109;-70
2022/04/29 13:15:13;;;;;;;9.68;5.20;;;19.40;50.70;;;;;;4961981;28;20035;-69
2022/04/29 13:17:39;;;;;;;7.30;5.15;;;19.30;50.70;;;;;;4951316;28;20043;-68
2022/04/29 13:20:08;;;;;;;7.32;4.20;;;19.40;51.10;;;;;;4945744;28;22343;-68
2022/04/29 13:22:38;;;;;;;7.15;4.60;;;19.30;50.90;;;;;;4943987;28;20145;-69